sensor_id;sensor_type;location;lat;lon;timestamp;temperature;humidity
36924;DHT22;22841;50.252;18.688;2023-03-04T07:26:27;0.10;99.90
36924;DHT22;22841;50.252;18.688;2023-03-04T08:43:49;0.40;99.90
36924;DHT22;22841;50.252;18.688;2023-03-04T09:53:24;0.80;99.90
36924;DHT22;22841;50.252;18.688;2023-03-04T09:55:54;0.80;99.90
36924;DHT22;22841;50.252;18.688;2023-03-04T10:11:57;0.80;99.90
36924;DHT22;22841;50.252;18.688;2023-03-04T10:14:36;0.80;99.90
36924;DHT22;22841;50.252;18.688;2023-03-04T10:17:16;0.90;99.90
36924;DHT22;22841;50.252;18.688;2023-03-04T10:20:03;0.90;99.90
36924;DHT22;22841;50.252;18.688;2023-03-04T10:27:43;0.90;99.90
36924;DHT22;22841;50.252;18.688;2023-03-04T10:33:17;0.80;99.90
36924;DHT22;22841;50.252;18.688;2023-03-04T10:35:52;0.90;99.90
36924;DHT22;22841;50.252;18.688;2023-03-04T10:38:21;0.80;99.90
36924;DHT22;22841;50.252;18.688;2023-03-04T10:40:48;0.80;99.90
36924;DHT22;22841;50.252;18.688;2023-03-04T10:43:19;0.80;99.90
36924;DHT22;22841;50.252;18.688;2023-03-04T10:45:45;0.80;99.90
36924;DHT22;22841;50.252;18.688;2023-03-04T10:48:21;0.80;99.90
36924;DHT22;22841;50.252;18.688;2023-03-04T10:50:48;0.80;99.90
36924;DHT22;22841;50.252;18.688;2023-03-04T10:55:49;0.90;99.90
36924;DHT22;22841;50.252;18.688;2023-03-04T10:58:16;0.90;99.90
36924;DHT22;22841;50.252;18.688;2023-03-04T11:00:58;0.90;99.90
36924;DHT22;22841;50.252;18.688;2023-03-04T11:03:30;0.90;99.90
36924;DHT22;22841;50.252;18.688;2023-03-04T11:06:10;0.90;99.90
36924;DHT22;22841;50.252;18.688;2023-03-04T11:08:39;0.90;99.90
36924;DHT22;22841;50.252;18.688;2023-03-04T11:11:45;0.90;99.90
36924;DHT22;22841;50.252;18.688;2023-03-04T11:14:30;1.00;99.90
36924;DHT22;22841;50.252;18.688;2023-03-04T11:17:07;1.00;99.90
36924;DHT22;22841;50.252;18.688;2023-03-04T11:19:41;0.90;99.90
36924;DHT22;22841;50.252;18.688;2023-03-04T11:22:13;1.00;99.90
36924;DHT22;22841;50.252;18.688;2023-03-04T11:24:42;1.10;99.90
36924;DHT22;22841;50.252;18.688;2023-03-04T11:27:21;1.00;99.90
36924;DHT22;22841;50.252;18.688;2023-03-04T11:29:59;1.00;99.90
36924;DHT22;22841;50.252;18.688;2023-03-04T11:32:31;1.10;99.90
36924;DHT22;22841;50.252;18.688;2023-03-04T11:35:23;1.10;99.90
36924;DHT22;22841;50.252;18.688;2023-03-04T11:40:58;1.20;99.90
36924;DHT22;22841;50.252;18.688;2023-03-04T11:43:38;1.20;99.90
36924;DHT22;22841;50.252;18.688;2023-03-04T11:46:20;1.30;99.90
36924;DHT22;22841;50.252;18.688;2023-03-04T11:49:07;1.30;99.90
36924;DHT22;22841;50.252;18.688;2023-03-04T11:51:38;1.30;99.90
36924;DHT22;22841;50.252;18.688;2023-03-04T11:56:54;1.40;99.90
36924;DHT22;22841;50.252;18.688;2023-03-04T12:02:19;1.60;99.90
36924;DHT22;22841;50.252;18.688;2023-03-04T12:54:56;2.70;99.90
36924;DHT22;22841;50.252;18.688;2023-03-04T12:57:26;2.80;99.90
36924;DHT22;22841;50.252;18.688;2023-03-04T13:05:23;2.90;99.90
36924;DHT22;22841;50.252;18.688;2023-03-04T13:18:31;3.00;99.90
36924;DHT22;22841;50.252;18.688;2023-03-04T13:28:50;3.20;99.90
36924;DHT22;22841;50.252;18.688;2023-03-04T14:12:55;3.30;99.90
36924;DHT22;22841;50.252;18.688;2023-03-04T14:25:46;3.30;99.90
36924;DHT22;22841;50.252;18.688;2023-03-04T14:28:18;3.30;99.90
36924;DHT22;22841;50.252;18.688;2023-03-04T14:33:25;3.20;99.90
36924;DHT22;22841;50.252;18.688;2023-03-04T14:48:52;3.10;99.90
36924;DHT22;22841;50.252;18.688;2023-03-04T14:59:12;2.70;99.90
36924;DHT22;22841;50.252;18.688;2023-03-04T15:22:25;2.50;99.90
36924;DHT22;22841;50.252;18.688;2023-03-04T15:24:52;2.50;99.90
36924;DHT22;22841;50.252;18.688;2023-03-04T15:27:20;2.50;99.90
36924;DHT22;22841;50.252;18.688;2023-03-04T15:29:49;2.50;99.90
36924;DHT22;22841;50.252;18.688;2023-03-04T16:26:43;2.40;99.90
36924;DHT22;22841;50.252;18.688;2023-03-04T16:39:33;2.40;99.90
36924;DHT22;22841;50.252;18.688;2023-03-04T17:45:08;2.50;99.90
36924;DHT22;22841;50.252;18.688;2023-03-04T17:52:46;2.50;99.90
36924;DHT22;22841;50.252;18.688;2023-03-04T17:55:12;2.60;99.90
36924;DHT22;22841;50.252;18.688;2023-03-04T17:57:38;2.50;99.90
36924;DHT22;22841;50.252;18.688;2023-03-04T18:00:05;2.60;99.90
36924;DHT22;22841;50.252;18.688;2023-03-04T18:02:32;2.60;99.90
36924;DHT22;22841;50.252;18.688;2023-03-04T18:05:00;2.50;99.90
36924;DHT22;22841;50.252;18.688;2023-03-04T18:07:26;2.50;99.90
36924;DHT22;22841;50.252;18.688;2023-03-04T18:09:53;2.50;99.90
36924;DHT22;22841;50.252;18.688;2023-03-04T18:12:19;2.50;99.90
36924;DHT22;22841;50.252;18.688;2023-03-04T18:14:46;2.50;99.90
36924;DHT22;22841;50.252;18.688;2023-03-04T18:17:12;2.40;99.90
36924;DHT22;22841;50.252;18.688;2023-03-04T18:19:38;2.40;99.90
36924;DHT22;22841;50.252;18.688;2023-03-04T18:22:04;2.40;99.90
36924;DHT22;22841;50.252;18.688;2023-03-04T18:24:30;2.40;99.90
36924;DHT22;22841;50.252;18.688;2023-03-04T18:26:56;2.40;99.90
36924;DHT22;22841;50.252;18.688;2023-03-04T18:29:22;2.40;99.90
36924;DHT22;22841;50.252;18.688;2023-03-04T18:31:48;2.40;99.90
36924;DHT22;22841;50.252;18.688;2023-03-04T18:34:15;2.40;99.90
36924;DHT22;22841;50.252;18.688;2023-03-04T18:36:41;2.40;99.90
36924;DHT22;22841;50.252;18.688;2023-03-04T18:39:07;2.50;99.90
36924;DHT22;22841;50.252;18.688;2023-03-04T18:41:34;2.50;99.90
36924;DHT22;22841;50.252;18.688;2023-03-04T18:44:00;2.50;99.90
36924;DHT22;22841;50.252;18.688;2023-03-04T18:46:47;2.60;99.90
36924;DHT22;22841;50.252;18.688;2023-03-04T18:49:15;2.60;99.90
36924;DHT22;22841;50.252;18.688;2023-03-04T18:51:41;2.60;99.90
36924;DHT22;22841;50.252;18.688;2023-03-04T18:54:07;2.60;99.90
36924;DHT22;22841;50.252;18.688;2023-03-04T18:56:47;2.70;99.90
36924;DHT22;22841;50.252;18.688;2023-03-04T18:59:23;2.70;99.90
36924;DHT22;22841;50.252;18.688;2023-03-04T19:01:50;2.70;99.90
36924;DHT22;22841;50.252;18.688;2023-03-04T19:04:19;2.70;99.90
36924;DHT22;22841;50.252;18.688;2023-03-04T19:06:45;2.70;99.90
36924;DHT22;22841;50.252;18.688;2023-03-04T19:09:11;2.70;99.90
36924;DHT22;22841;50.252;18.688;2023-03-04T19:11:37;2.70;99.90
36924;DHT22;22841;50.252;18.688;2023-03-04T19:14:03;2.70;99.90
36924;DHT22;22841;50.252;18.688;2023-03-04T19:16:31;2.70;99.90
36924;DHT22;22841;50.252;18.688;2023-03-04T19:18:57;2.80;99.90
36924;DHT22;22841;50.252;18.688;2023-03-04T19:21:23;2.70;99.90
36924;DHT22;22841;50.252;18.688;2023-03-04T19:23:49;2.70;99.90
36924;DHT22;22841;50.252;18.688;2023-03-04T19:26:15;2.80;99.90
36924;DHT22;22841;50.252;18.688;2023-03-04T19:28:41;2.80;99.90
36924;DHT22;22841;50.252;18.688;2023-03-04T19:31:08;2.80;99.90
36924;DHT22;22841;50.252;18.688;2023-03-04T19:33:37;2.80;99.90
36924;DHT22;22841;50.252;18.688;2023-03-04T19:36:04;2.90;99.90
36924;DHT22;22841;50.252;18.688;2023-03-04T19:38:32;2.80;99.90
36924;DHT22;22841;50.252;18.688;2023-03-04T19:40:58;2.80;99.90
36924;DHT22;22841;50.252;18.688;2023-03-04T19:43:31;2.90;99.90
36924;DHT22;22841;50.252;18.688;2023-03-04T19:46:01;2.80;99.90
36924;DHT22;22841;50.252;18.688;2023-03-04T19:48:27;2.80;99.90
36924;DHT22;22841;50.252;18.688;2023-03-04T19:50:54;2.80;99.90
36924;DHT22;22841;50.252;18.688;2023-03-04T19:53:20;2.80;99.90
36924;DHT22;22841;50.252;18.688;2023-03-04T19:55:47;2.70;99.90
36924;DHT22;22841;50.252;18.688;2023-03-04T19:58:14;2.70;99.90
36924;DHT22;22841;50.252;18.688;2023-03-04T20:00:41;2.70;99.90
36924;DHT22;22841;50.252;18.688;2023-03-04T20:03:07;2.70;99.90
36924;DHT22;22841;50.252;18.688;2023-03-04T20:05:34;2.70;99.90
36924;DHT22;22841;50.252;18.688;2023-03-04T20:08:01;2.70;99.90
36924;DHT22;22841;50.252;18.688;2023-03-04T20:10:34;2.70;99.90
36924;DHT22;22841;50.252;18.688;2023-03-04T20:13:05;2.80;99.90
36924;DHT22;22841;50.252;18.688;2023-03-04T20:15:31;2.70;99.90
36924;DHT22;22841;50.252;18.688;2023-03-04T20:18:00;2.60;99.90
36924;DHT22;22841;50.252;18.688;2023-03-04T20:20:27;2.60;99.90
36924;DHT22;22841;50.252;18.688;2023-03-04T20:22:54;2.60;99.90
36924;DHT22;22841;50.252;18.688;2023-03-04T20:25:21;2.60;99.90
36924;DHT22;22841;50.252;18.688;2023-03-04T20:27:47;2.50;99.90
36924;DHT22;22841;50.252;18.688;2023-03-04T20:30:14;2.60;99.90
36924;DHT22;22841;50.252;18.688;2023-03-04T20:32:40;2.60;99.90
36924;DHT22;22841;50.252;18.688;2023-03-04T20:35:07;2.60;99.90
36924;DHT22;22841;50.252;18.688;2023-03-04T20:37:38;2.60;99.90
36924;DHT22;22841;50.252;18.688;2023-03-04T20:40:05;2.60;99.90
36924;DHT22;22841;50.252;18.688;2023-03-04T20:42:31;2.60;99.90
36924;DHT22;22841;50.252;18.688;2023-03-04T20:44:58;2.60;99.90
36924;DHT22;22841;50.252;18.688;2023-03-04T20:47:24;2.60;99.90
36924;DHT22;22841;50.252;18.688;2023-03-04T20:49:50;2.60;99.90
36924;DHT22;22841;50.252;18.688;2023-03-04T20:52:16;2.60;99.90
36924;DHT22;22841;50.252;18.688;2023-03-04T20:54:43;2.60;99.90
36924;DHT22;22841;50.252;18.688;2023-03-04T20:57:09;2.60;99.90
36924;DHT22;22841;50.252;18.688;2023-03-04T20:59:37;2.50;99.90
36924;DHT22;22841;50.252;18.688;2023-03-04T21:02:05;2.50;99.90
36924;DHT22;22841;50.252;18.688;2023-03-04T21:04:32;2.50;99.90
36924;DHT22;22841;50.252;18.688;2023-03-04T21:07:00;2.50;99.90
36924;DHT22;22841;50.252;18.688;2023-03-04T21:09:26;2.50;99.90
36924;DHT22;22841;50.252;18.688;2023-03-04T21:11:53;2.40;99.90
36924;DHT22;22841;50.252;18.688;2023-03-04T21:14:21;2.40;99.90
36924;DHT22;22841;50.252;18.688;2023-03-04T21:16:49;2.40;99.90
36924;DHT22;22841;50.252;18.688;2023-03-04T21:19:18;2.50;99.90
36924;DHT22;22841;50.252;18.688;2023-03-04T21:21:46;2.40;99.90
36924;DHT22;22841;50.252;18.688;2023-03-04T21:24:15;2.40;99.90
36924;DHT22;22841;50.252;18.688;2023-03-04T21:26:41;2.40;99.90
36924;DHT22;22841;50.252;18.688;2023-03-04T21:29:14;2.40;99.90
36924;DHT22;22841;50.252;18.688;2023-03-04T21:31:43;2.40;99.90
36924;DHT22;22841;50.252;18.688;2023-03-04T21:34:19;2.50;99.90
36924;DHT22;22841;50.252;18.688;2023-03-04T21:36:46;2.50;99.90
36924;DHT22;22841;50.252;18.688;2023-03-04T21:39:17;2.50;99.90
36924;DHT22;22841;50.252;18.688;2023-03-04T21:41:43;2.50;99.90
36924;DHT22;22841;50.252;18.688;2023-03-04T21:44:10;2.50;99.90
36924;DHT22;22841;50.252;18.688;2023-03-04T21:46:36;2.50;99.90
36924;DHT22;22841;50.252;18.688;2023-03-04T23:08:57;1.80;99.90
36924;DHT22;22841;50.252;18.688;2023-03-04T23:54:24;1.60;99.90
36924;DHT22;22841;50.252;18.688;2023-03-04T23:59:27;1.60;99.90
